createdAt,value
2023-03-17T00:01:55.154Z,1.50
2023-03-17T00:04:24.179Z,1.60
2023-03-17T00:06:52.642Z,1.50
2023-03-17T00:09:20.741Z,1.63
2023-03-17T00:11:48.165Z,1.67
2023-03-17T00:14:16.626Z,1.65
2023-03-17T00:16:49.480Z,1.60
2023-03-17T00:19:24.231Z,1.67
2023-03-17T00:21:51.584Z,1.70
2023-03-17T00:24:18.357Z,1.70
2023-03-17T00:26:45.136Z,1.80
2023-03-17T00:29:11.935Z,1.98
2023-03-17T00:31:39.472Z,1.50
2023-03-17T00:34:07.958Z,1.83
2023-03-17T00:36:35.481Z,2.20
2023-03-17T00:39:02.278Z,1.90
2023-03-17T00:41:29.487Z,1.70
2023-03-17T00:43:57.194Z,1.65
2023-03-17T00:46:29.025Z,2.00
2023-03-17T00:48:55.837Z,1.95
2023-03-17T00:51:23.375Z,1.90
2023-03-17T00:53:50.694Z,2.05
2023-03-17T00:56:20.840Z,1.50
2023-03-17T00:58:48.852Z,1.98
2023-03-17T01:01:15.939Z,1.90
2023-03-17T01:03:42.824Z,1.98
2023-03-17T01:06:13.085Z,2.33
2023-03-17T01:08:41.728Z,2.65
2023-03-17T01:11:20.338Z,2.33
2023-03-17T01:13:47.523Z,2.10
2023-03-17T01:16:15.635Z,2.63
2023-03-17T01:18:42.636Z,2.47
2023-03-17T01:21:09.534Z,3.10
2023-03-17T01:23:37.338Z,2.50
2023-03-17T01:26:04.255Z,2.33
2023-03-17T01:28:30.996Z,3.10
2023-03-17T01:30:57.820Z,2.70
2023-03-17T01:33:25.480Z,2.80
2023-03-17T01:35:52.482Z,2.92
2023-03-17T01:38:19.484Z,2.75
2023-03-17T01:40:52.188Z,2.53
2023-03-17T01:43:23.866Z,2.72
2023-03-17T01:46:30.505Z,2.90
2023-03-17T01:49:25.698Z,2.72
2023-03-17T01:52:07.547Z,2.80
2023-03-17T01:54:56.280Z,3.15
2023-03-17T01:57:33.949Z,2.92
2023-03-17T02:00:10.668Z,2.45
2023-03-17T02:02:42.636Z,2.95
2023-03-17T02:05:14.394Z,2.55
2023-03-17T02:07:41.719Z,2.75
2023-03-17T02:10:09.783Z,2.88
2023-03-17T02:12:36.862Z,2.70
2023-03-17T02:15:05.255Z,2.85
2023-03-17T02:17:32.016Z,2.97
2023-03-17T02:20:18.418Z,3.25
2023-03-17T02:22:49.282Z,2.80
2023-03-17T02:25:17.446Z,3.13
2023-03-17T02:27:49.253Z,2.92
2023-03-17T02:30:20.489Z,2.53
2023-03-17T02:32:47.737Z,2.75
2023-03-17T02:35:15.457Z,2.55
2023-03-17T02:37:43.637Z,2.60
2023-03-17T02:40:13.375Z,2.40
2023-03-17T02:42:41.105Z,2.40
2023-03-17T02:45:11.459Z,3.38
2023-03-17T02:47:38.703Z,2.97
2023-03-17T02:50:07.444Z,2.83
2023-03-17T02:52:34.303Z,2.63
2023-03-17T02:55:01.124Z,2.65
2023-03-17T02:57:27.936Z,3.22
2023-03-17T02:59:54.732Z,2.60
2023-03-17T03:02:21.735Z,2.63
2023-03-17T03:04:48.630Z,3.25
2023-03-17T03:07:16.088Z,2.72
2023-03-17T03:09:42.873Z,2.95
2023-03-17T03:12:09.992Z,3.15
2023-03-17T03:14:37.456Z,3.10
2023-03-17T03:17:04.415Z,2.75
2023-03-17T03:19:31.301Z,2.83
2023-03-17T03:21:58.135Z,2.97
2023-03-17T03:24:24.949Z,2.75
2023-03-17T03:26:51.988Z,2.97
2023-03-17T03:29:18.771Z,3.13
2023-03-17T03:31:45.940Z,3.35
2023-03-17T03:34:12.750Z,3.00
2023-03-17T03:36:39.527Z,3.05
2023-03-17T03:39:06.353Z,3.20
2023-03-17T03:41:33.158Z,2.95
2023-03-17T03:44:00.120Z,2.47
2023-03-17T03:46:26.984Z,2.95
2023-03-17T03:48:54.756Z,3.28
2023-03-17T03:51:21.572Z,3.55
2023-03-17T03:53:48.396Z,3.17
2023-03-17T03:56:15.330Z,3.10
2023-03-17T03:58:42.082Z,3.13
2023-03-17T04:01:09.893Z,2.90
2023-03-17T04:03:37.995Z,3.40
2023-03-17T04:06:05.743Z,3.05
2023-03-17T04:08:33.143Z,3.25
2023-03-17T04:11:00.125Z,3.03
2023-03-17T04:13:27.043Z,3.65
2023-03-17T04:15:53.834Z,3.78
2023-03-17T04:18:20.685Z,3.30
2023-03-17T04:20:47.445Z,3.30
2023-03-17T04:23:14.326Z,3.28
2023-03-17T04:25:41.089Z,2.67
2023-03-17T04:28:08.909Z,3.20
2023-03-17T04:30:35.740Z,3.20
2023-03-17T04:33:02.548Z,3.13
2023-03-17T04:35:29.704Z,3.25
2023-03-17T04:37:56.527Z,3.38
2023-03-17T04:40:23.321Z,3.38
2023-03-17T04:42:50.133Z,3.25
2023-03-17T04:45:17.108Z,3.42
2023-03-17T04:47:46.107Z,3.60
2023-03-17T04:50:13.841Z,3.80
2023-03-17T04:52:41.705Z,3.33
2023-03-17T04:55:09.351Z,3.35
2023-03-17T04:57:36.806Z,2.88
2023-03-17T05:00:08.285Z,3.60
2023-03-17T05:02:35.332Z,2.80
2023-03-17T05:05:02.636Z,3.20
2023-03-17T05:07:29.423Z,3.40
2023-03-17T05:09:57.011Z,3.50
2023-03-17T05:12:23.805Z,3.08
2023-03-17T05:14:50.612Z,3.38
2023-03-17T05:17:17.404Z,3.00
2023-03-17T05:19:44.170Z,3.97
2023-03-17T05:22:11.455Z,3.30
2023-03-17T05:24:38.217Z,3.30
2023-03-17T05:27:05.025Z,3.38
2023-03-17T05:29:32.060Z,2.80
2023-03-17T05:31:58.869Z,3.60
2023-03-17T05:34:25.756Z,3.45
2023-03-17T05:36:52.525Z,3.58
2023-03-17T05:39:19.341Z,3.00
2023-03-17T05:41:47.037Z,3.00
2023-03-17T05:44:14.450Z,3.50
2023-03-17T05:46:41.265Z,3.10
2023-03-17T05:49:08.606Z,3.03
2023-03-17T05:51:36.967Z,3.60
2023-03-17T05:54:04.647Z,3.42
2023-03-17T05:56:33.692Z,3.33
2023-03-17T05:59:02.245Z,3.22
2023-03-17T06:01:29.619Z,3.50
2023-03-17T06:03:56.545Z,3.53
2023-03-17T06:06:24.492Z,3.10
2023-03-17T06:08:51.629Z,3.63
2023-03-17T06:11:20.603Z,3.35
2023-03-17T06:13:47.761Z,3.78
2023-03-17T06:16:14.575Z,3.00
2023-03-17T06:18:41.478Z,3.65
2023-03-17T06:21:08.241Z,3.63
2023-03-17T06:23:36.585Z,3.15
2023-03-17T06:26:03.598Z,3.38
2023-03-17T06:28:30.632Z,3.30
2023-03-17T06:30:57.979Z,3.38
2023-03-17T06:33:26.005Z,3.38
2023-03-17T06:35:53.283Z,3.25
2023-03-17T06:38:21.918Z,3.80
2023-03-17T06:40:48.682Z,2.90
2023-03-17T06:43:15.482Z,2.92
2023-03-17T06:45:42.245Z,2.78
2023-03-17T06:48:09.188Z,3.20
2023-03-17T06:50:36.108Z,3.10
2023-03-17T06:53:03.089Z,3.13
2023-03-17T06:55:30.220Z,3.22
2023-03-17T06:57:57.247Z,3.00
2023-03-17T07:00:24.059Z,3.05
2023-03-17T07:02:51.168Z,2.80
2023-03-17T07:05:18.509Z,2.67
2023-03-17T07:07:45.912Z,3.25
2023-03-17T07:10:17.090Z,3.70
2023-03-17T07:12:45.197Z,2.78
2023-03-17T07:15:12.483Z,2.85
2023-03-17T07:17:39.364Z,2.85
2023-03-17T07:20:06.787Z,2.58
2023-03-17T07:22:33.739Z,2.90
2023-03-17T07:25:00.590Z,2.97
2023-03-17T07:27:27.498Z,2.53
2023-03-17T07:29:54.291Z,2.40
2023-03-17T07:32:21.086Z,2.75
2023-03-17T07:34:47.869Z,2.63
2023-03-17T07:37:15.276Z,2.65
2023-03-17T07:39:42.493Z,2.50
2023-03-17T07:42:15.286Z,2.22
2023-03-17T07:44:42.152Z,2.95
2023-03-17T07:47:10.794Z,2.58
2023-03-17T07:49:41.953Z,2.42
2023-03-17T07:52:10.729Z,2.45
2023-03-17T07:54:37.828Z,2.28
2023-03-17T07:57:05.732Z,2.20
2023-03-17T07:59:33.204Z,2.35
2023-03-17T08:02:01.336Z,2.38
2023-03-17T08:04:28.823Z,2.30
2023-03-17T08:06:55.740Z,2.00
2023-03-17T08:09:22.933Z,2.05
2023-03-17T08:11:50.597Z,2.42
2023-03-17T08:14:17.451Z,2.53
2023-03-17T08:16:44.367Z,2.47
2023-03-17T08:19:11.231Z,2.78
2023-03-17T08:21:38.078Z,2.67
2023-03-17T08:24:05.331Z,2.33
2023-03-17T08:26:32.437Z,2.20
2023-03-17T08:28:59.442Z,2.22
2023-03-17T08:31:26.478Z,2.40
2023-03-17T08:33:54.529Z,2.05
2023-03-17T08:36:21.700Z,1.95
2023-03-17T08:38:48.988Z,2.22
2023-03-17T08:41:21.793Z,2.45
2023-03-17T08:43:48.950Z,1.90
2023-03-17T08:46:30.286Z,2.22
2023-03-17T08:48:59.281Z,1.98
2023-03-17T08:51:30.646Z,2.30
2023-03-17T08:53:58.654Z,2.03
2023-03-17T08:56:25.972Z,2.17
2023-03-17T08:58:53.045Z,1.67
2023-03-17T09:01:21.167Z,2.10
2023-03-17T09:03:49.524Z,2.10
2023-03-17T09:06:16.413Z,1.75
2023-03-17T09:08:44.944Z,1.80
2023-03-17T09:11:16.726Z,1.88
2023-03-17T09:13:44.789Z,1.77
2023-03-17T09:16:12.155Z,1.83
2023-03-17T09:18:39.415Z,1.95
2023-03-17T09:21:06.979Z,2.00
2023-03-17T09:23:33.772Z,1.30
2023-03-17T09:26:02.172Z,1.80
2023-03-17T09:28:29.230Z,1.95
2023-03-17T09:31:01.225Z,1.80
2023-03-17T09:33:28.512Z,1.52
2023-03-17T09:35:59.096Z,1.45
2023-03-17T09:38:27.760Z,1.42
2023-03-17T09:41:19.661Z,1.60
2023-03-17T09:44:01.090Z,1.40
2023-03-17T09:46:48.700Z,1.90
2023-03-17T09:49:27.526Z,1.45
2023-03-17T09:51:54.637Z,1.52
2023-03-17T09:54:28.611Z,1.40
2023-03-17T09:57:06.018Z,1.52
2023-03-17T09:59:38.064Z,1.38
2023-03-17T10:02:22.111Z,1.55
2023-03-17T10:04:49.110Z,1.55
2023-03-17T10:08:04.352Z,1.35
2023-03-17T10:10:48.175Z,1.42
2023-03-17T10:13:45.465Z,1.33
2023-03-17T10:16:14.941Z,1.48
2023-03-17T10:18:56.800Z,1.73
2023-03-17T10:21:32.762Z,1.63
2023-03-17T10:24:00.891Z,1.40
2023-03-17T10:26:40.496Z,1.60
2023-03-17T10:29:18.971Z,1.30
2023-03-17T10:31:45.832Z,1.23
2023-03-17T10:34:34.284Z,1.27
2023-03-17T10:37:09.374Z,1.52
2023-03-17T10:39:47.960Z,1.17
2023-03-17T10:42:27.360Z,1.30
2023-03-17T10:44:57.554Z,1.20
2023-03-17T10:47:32.509Z,1.25
2023-03-17T10:50:21.333Z,1.83
2023-03-17T10:52:54.825Z,1.20
2023-03-17T10:55:27.990Z,1.30
2023-03-17T10:58:04.339Z,1.33
2023-03-17T11:00:35.552Z,1.40
2023-03-17T11:03:20.905Z,1.30
2023-03-17T11:05:58.873Z,1.40
2023-03-17T11:08:31.432Z,1.25
2023-03-17T11:10:58.887Z,1.58
2023-03-17T11:13:30.506Z,1.33
2023-03-17T11:16:22.255Z,1.40
2023-03-17T11:18:56.764Z,1.27
2023-03-17T11:24:33.477Z,1.30
2023-03-17T11:27:12.117Z,1.75
2023-03-17T11:30:25.119Z,1.50
2023-03-17T11:33:12.500Z,1.25
2023-03-17T11:36:20.991Z,1.20
2023-03-17T11:39:11.634Z,1.33
2023-03-17T11:42:06.862Z,1.45
2023-03-17T11:44:55.451Z,1.42
2023-03-17T11:47:51.134Z,1.45
2023-03-17T11:50:28.368Z,1.45
2023-03-17T11:53:26.049Z,1.42
2023-03-17T11:56:16.941Z,1.38
2023-03-17T11:58:48.252Z,1.52
2023-03-17T12:01:27.117Z,1.55
2023-03-17T12:04:34.198Z,1.40
2023-03-17T12:07:23.938Z,1.70
2023-03-17T12:10:10.856Z,1.90
2023-03-17T12:12:49.343Z,2.13
2023-03-17T12:15:31.638Z,1.73
2023-03-17T12:18:12.307Z,1.80
2023-03-17T12:21:01.742Z,1.40
2023-03-17T12:23:52.935Z,1.35
2023-03-17T12:26:59.466Z,1.20
2023-03-17T12:29:58.992Z,1.30
2023-03-17T12:32:45.028Z,1.45
2023-03-17T12:35:29.425Z,1.73
2023-03-17T12:40:44.080Z,1.50
2023-03-17T12:43:47.113Z,1.45
2023-03-17T12:46:35.437Z,1.35
2023-03-17T12:49:27.021Z,1.38
2023-03-17T12:52:16.847Z,1.25
2023-03-17T12:54:51.905Z,1.73
2023-03-17T12:57:22.981Z,1.30
2023-03-17T12:59:59.045Z,1.73
2023-03-17T13:02:28.860Z,1.48
2023-03-17T13:05:00.499Z,1.60
2023-03-17T13:07:44.924Z,1.38
2023-03-17T13:10:20.966Z,1.30
2023-03-17T13:12:47.597Z,1.63
2023-03-17T13:15:34.054Z,1.25
2023-03-17T13:18:15.934Z,1.48
2023-03-17T13:20:56.549Z,1.30
2023-03-17T13:23:48.109Z,1.35
2023-03-17T13:26:20.937Z,1.65
2023-03-17T13:28:50.897Z,1.45
2023-03-17T13:31:37.623Z,1.38
2023-03-17T13:34:17.752Z,1.48
2023-03-17T13:37:05.388Z,1.42
2023-03-17T13:40:22.077Z,1.10
2023-03-17T13:43:11.515Z,1.23
2023-03-17T13:45:47.528Z,1.42
2023-03-17T13:48:29.643Z,1.20
2023-03-17T13:51:08.869Z,1.23
2023-03-17T13:53:44.129Z,1.02
2023-03-17T13:56:19.719Z,0.93
2023-03-17T13:59:02.725Z,0.88
2023-03-17T14:01:39.229Z,1.27
2023-03-17T14:04:13.481Z,1.10
2023-03-17T14:06:40.553Z,0.88
2023-03-17T14:09:23.013Z,1.10
2023-03-17T14:11:51.249Z,0.82
2023-03-17T14:14:38.291Z,0.90
2023-03-17T14:17:20.855Z,0.90
2023-03-17T14:20:09.055Z,1.08
2023-03-17T14:22:44.847Z,1.42
2023-03-17T14:25:21.599Z,1.20
2023-03-17T14:27:54.830Z,0.95
2023-03-17T14:30:26.883Z,1.27
2023-03-17T14:33:27.833Z,1.00
2023-03-17T14:35:59.762Z,1.00
2023-03-17T14:38:39.953Z,0.90
2023-03-17T14:41:28.544Z,0.95
2023-03-17T14:44:00.373Z,0.68
2023-03-17T14:46:37.236Z,0.82
2023-03-17T14:49:18.111Z,1.40
2023-03-17T14:51:47.557Z,0.90
2023-03-17T14:54:19.556Z,0.60
2023-03-17T14:56:59.932Z,0.85
2023-03-17T14:59:40.618Z,0.70
2023-03-17T15:02:34.786Z,0.50
2023-03-17T15:05:29.735Z,0.67
2023-03-17T15:07:56.893Z,0.88
2023-03-17T15:10:34.295Z,1.00
2023-03-17T15:13:04.915Z,1.00
2023-03-17T15:15:34.988Z,0.80
2023-03-17T15:18:12.796Z,0.60
2023-03-17T15:20:42.232Z,0.90
2023-03-17T15:23:25.114Z,0.70
2023-03-17T15:25:56.855Z,0.70
2023-03-17T15:28:29.202Z,1.00
2023-03-17T15:31:11.693Z,0.70
2023-03-17T15:33:41.473Z,1.20
2023-03-17T15:36:31.382Z,0.68
2023-03-17T15:38:59.382Z,1.23
2023-03-17T15:41:26.301Z,0.70
2023-03-17T15:43:53.595Z,0.75
2023-03-17T15:46:31.490Z,0.90
2023-03-17T15:48:59.126Z,0.98
2023-03-17T15:51:26.327Z,0.90
2023-03-17T15:53:53.128Z,0.77
2023-03-17T15:56:21.387Z,1.15
2023-03-17T15:58:52.075Z,0.90
2023-03-17T16:01:20.252Z,1.02
2023-03-17T16:03:47.786Z,1.25
2023-03-17T16:06:18.786Z,0.88
2023-03-17T16:08:46.469Z,0.95
2023-03-17T16:11:19.699Z,0.80
2023-03-17T16:13:47.675Z,1.08
2023-03-17T16:16:32.238Z,1.17
2023-03-17T16:18:59.159Z,1.00
2023-03-17T16:21:26.359Z,1.35
2023-03-17T16:23:53.384Z,1.33
2023-03-17T16:26:20.246Z,1.10
2023-03-17T16:28:47.754Z,0.95
2023-03-17T16:31:31.557Z,1.70
2023-03-17T16:33:58.485Z,1.10
2023-03-17T16:36:25.842Z,1.00
2023-03-17T16:38:53.148Z,0.90
2023-03-17T16:41:24.479Z,0.82
2023-03-17T16:43:57.810Z,1.13
2023-03-17T16:46:27.225Z,1.10
2023-03-17T16:48:54.066Z,1.00
2023-03-17T16:51:20.957Z,1.02
2023-03-17T16:53:47.903Z,1.13
2023-03-17T16:56:20.453Z,1.02
2023-03-17T16:58:47.842Z,0.90
2023-03-17T17:01:19.713Z,1.60
2023-03-17T17:03:46.729Z,1.23
2023-03-17T17:06:16.671Z,1.30
2023-03-17T17:08:45.337Z,1.20
2023-03-17T17:11:13.801Z,1.20
2023-03-17T17:13:43.995Z,1.00
2023-03-17T17:16:33.094Z,1.80
2023-03-17T17:19:00.411Z,2.60
2023-03-17T17:21:27.992Z,2.15
2023-03-17T17:23:55.434Z,1.75
2023-03-17T17:26:22.733Z,1.73
2023-03-17T17:28:49.717Z,1.33
2023-03-17T17:31:16.759Z,1.10
2023-03-17T17:33:43.589Z,1.08
2023-03-17T17:36:16.587Z,1.45
2023-03-17T17:38:43.873Z,1.67
2023-03-17T17:41:12.161Z,1.80
2023-03-17T17:43:39.507Z,2.10
2023-03-17T17:46:21.124Z,1.75
2023-03-17T17:48:48.796Z,1.80
2023-03-17T17:51:15.903Z,1.30
2023-03-17T17:53:42.877Z,1.27
2023-03-17T17:56:17.950Z,1.15
2023-03-17T17:58:45.078Z,1.23
2023-03-17T18:01:14.030Z,1.30
2023-03-17T18:03:42.911Z,1.38
2023-03-17T18:06:10.572Z,1.60
2023-03-17T18:08:37.451Z,1.33
2023-03-17T18:11:04.327Z,1.38
2023-03-17T18:13:31.318Z,1.33
2023-03-17T18:15:58.406Z,1.15
2023-03-17T18:18:25.205Z,1.67
2023-03-17T18:20:53.814Z,1.40
2023-03-17T18:23:21.031Z,1.52
2023-03-17T18:25:47.825Z,1.45
2023-03-17T18:28:14.697Z,1.30
2023-03-17T18:30:42.038Z,1.90
2023-03-17T18:33:22.361Z,2.15
2023-03-17T18:35:50.952Z,3.00
2023-03-17T18:38:18.052Z,2.63
2023-03-17T18:40:45.042Z,2.80
2023-03-17T18:43:12.104Z,2.22
2023-03-17T18:45:39.022Z,1.83
2023-03-17T18:48:05.988Z,2.25
2023-03-17T18:50:33.386Z,1.80
2023-03-17T18:53:00.379Z,1.88
2023-03-17T18:55:27.170Z,1.90
2023-03-17T18:57:54.837Z,2.10
2023-03-17T19:00:22.005Z,2.15
2023-03-17T19:02:48.824Z,1.65
2023-03-17T19:05:16.114Z,1.35
2023-03-17T19:07:42.943Z,1.23
2023-03-17T19:10:12.163Z,1.40
2023-03-17T19:12:39.002Z,1.42
2023-03-17T19:15:07.923Z,1.40
2023-03-17T19:17:35.092Z,1.30
2023-03-17T19:20:02.466Z,1.50
2023-03-17T19:22:29.299Z,1.70
2023-03-17T19:24:56.070Z,1.92
2023-03-17T19:27:22.980Z,1.70
2023-03-17T19:29:49.745Z,2.15
2023-03-17T19:32:17.150Z,1.60
2023-03-17T19:34:44.232Z,1.95
2023-03-17T19:37:11.025Z,1.95
2023-03-17T19:39:37.817Z,1.73
2023-03-17T19:42:05.027Z,3.00
2023-03-17T19:44:31.797Z,2.33
2023-03-17T19:47:01.488Z,2.38
2023-03-17T19:49:28.312Z,1.70
2023-03-17T19:51:55.062Z,1.83
2023-03-17T19:54:23.393Z,1.83
2023-03-17T19:56:50.368Z,2.33
2023-03-17T19:59:18.947Z,1.55
2023-03-17T20:01:46.234Z,2.00
2023-03-17T20:04:17.514Z,2.00
2023-03-17T20:06:44.393Z,1.50
2023-03-17T20:09:11.718Z,1.33
2023-03-17T20:11:39.530Z,1.55
2023-03-17T20:14:06.596Z,1.40
2023-03-17T20:16:36.063Z,1.00
2023-03-17T20:19:03.674Z,1.30
2023-03-17T20:21:31.252Z,1.40
2023-03-17T20:23:58.647Z,1.50
2023-03-17T20:26:25.523Z,1.50
2023-03-17T20:28:52.339Z,1.98
2023-03-17T20:31:19.264Z,1.52
2023-03-17T20:33:46.116Z,1.50
2023-03-17T20:36:13.822Z,2.20
2023-03-17T20:38:40.909Z,2.13
2023-03-17T20:41:17.570Z,1.98
2023-03-17T20:43:45.970Z,2.00
2023-03-17T20:46:17.831Z,1.80
2023-03-17T20:48:47.667Z,1.80
2023-03-17T20:51:16.691Z,6.43
2023-03-17T20:53:46.122Z,5.20
2023-03-17T20:56:15.723Z,4.30
2023-03-17T20:58:45.276Z,3.25
2023-03-17T21:01:12.839Z,2.08
2023-03-17T21:03:40.995Z,2.00
2023-03-17T21:06:08.099Z,1.98
2023-03-17T21:08:35.209Z,1.92
2023-03-17T21:11:02.755Z,2.30
2023-03-17T21:13:30.950Z,2.00
2023-03-17T21:15:57.867Z,2.00
2023-03-17T21:18:24.964Z,1.85
2023-03-17T21:20:51.788Z,1.95
2023-03-17T21:23:19.106Z,2.00
2023-03-17T21:25:46.350Z,2.45
2023-03-17T21:28:13.599Z,2.38
2023-03-17T21:30:43.740Z,2.42
2023-03-17T21:33:10.546Z,1.90
2023-03-17T21:35:37.498Z,2.10
2023-03-17T21:38:05.471Z,2.17
2023-03-17T21:40:32.952Z,2.42
2023-03-17T21:43:00.748Z,1.95
2023-03-17T21:45:28.530Z,1.98
2023-03-17T21:47:55.677Z,2.17
2023-03-17T21:50:23.083Z,1.95
2023-03-17T21:52:49.894Z,1.98
2023-03-17T21:55:16.991Z,2.20
2023-03-17T21:57:43.843Z,2.30
2023-03-17T22:00:11.688Z,2.05
2023-03-17T22:02:39.667Z,2.47
2023-03-17T22:05:07.047Z,1.60
2023-03-17T22:07:33.999Z,1.95
2023-03-17T22:10:01.169Z,2.00
2023-03-17T22:12:28.661Z,2.42
2023-03-17T22:14:57.616Z,2.60
2023-03-17T22:17:24.413Z,2.40
2023-03-17T22:19:53.050Z,2.40
2023-03-17T22:22:21.031Z,2.22
2023-03-17T22:24:48.438Z,2.35
2023-03-17T22:27:17.057Z,2.75
2023-03-17T22:29:44.414Z,2.25
2023-03-17T22:32:11.375Z,2.20
2023-03-17T22:34:38.155Z,2.33
2023-03-17T22:37:05.165Z,2.00
2023-03-17T22:39:31.951Z,1.90
2023-03-17T22:41:58.745Z,2.60
2023-03-17T22:44:25.540Z,2.60
2023-03-17T22:46:52.298Z,2.53
2023-03-17T22:49:19.171Z,3.20
2023-03-17T22:51:47.806Z,3.63
2023-03-17T22:54:14.672Z,3.63
2023-03-17T22:56:41.521Z,2.90
2023-03-17T22:59:08.291Z,2.47
2023-03-17T23:01:35.584Z,2.22
2023-03-17T23:04:02.513Z,2.33
2023-03-17T23:06:29.641Z,1.92
2023-03-17T23:08:56.424Z,2.00
2023-03-17T23:11:25.783Z,2.55
2023-03-17T23:13:53.625Z,1.80
2023-03-17T23:16:22.037Z,1.85
2023-03-17T23:18:49.047Z,1.83
2023-03-17T23:21:30.801Z,2.00
2023-03-17T23:23:58.134Z,1.33
2023-03-17T23:26:25.248Z,1.83
2023-03-17T23:28:52.558Z,1.60
2023-03-17T23:31:22.185Z,1.50
2023-03-17T23:33:50.381Z,1.85
2023-03-17T23:36:18.096Z,1.52
2023-03-17T23:38:45.512Z,1.63
2023-03-17T23:41:14.450Z,1.48
2023-03-17T23:43:41.516Z,1.20
2023-03-17T23:46:08.352Z,1.20
2023-03-17T23:48:35.271Z,1.20
2023-03-17T23:51:03.118Z,1.85
2023-03-17T23:53:30.072Z,1.77
2023-03-17T23:55:57.736Z,1.77
2023-03-17T23:58:24.593Z,1.75
